createdAt,value
2022-08-26T00:03:18.519Z,21.65
2022-08-26T00:08:21.276Z,25.38
2022-08-26T00:13:23.483Z,29.15
2022-08-26T00:18:25.942Z,26.42
2022-08-26T00:23:28.861Z,24.80
2022-08-26T00:28:31.371Z,29.35
2022-08-26T00:33:33.600Z,28.30
2022-08-26T00:38:37.865Z,26.08
2022-08-26T00:43:47.615Z,20.25
2022-08-26T00:48:53.952Z,22.52
2022-08-26T00:54:07.381Z,19.85
2022-08-26T00:59:14.845Z,26.05
2022-08-26T01:04:22.717Z,26.30
2022-08-26T01:09:25.654Z,22.85
2022-08-26T01:14:32.734Z,19.02
2022-08-26T01:19:48.848Z,26.92
2022-08-26T01:24:52.103Z,27.17
2022-08-26T01:29:55.962Z,29.90
2022-08-26T01:34:58.108Z,29.20
2022-08-26T01:40:01.006Z,27.75
2022-08-26T01:45:25.579Z,26.42
2022-08-26T01:50:31.963Z,22.98
2022-08-26T01:55:35.689Z,26.58
2022-08-26T02:00:38.650Z,29.95
2022-08-26T02:05:40.957Z,31.60
2022-08-26T02:10:45.793Z,30.65
2022-08-26T02:15:49.232Z,23.38
2022-08-26T02:20:54.402Z,25.58
2022-08-26T02:26:05.839Z,27.77
2022-08-26T02:31:08.183Z,30.60
2022-08-26T02:36:13.526Z,27.92
2022-08-26T02:41:18.139Z,32.72
2022-08-26T02:46:21.330Z,33.22
2022-08-26T02:51:30.157Z,32.60
2022-08-26T02:56:36.071Z,36.08
2022-08-26T03:01:39.064Z,34.05
2022-08-26T03:06:41.883Z,28.33
2022-08-26T03:11:44.121Z,29.48
2022-08-26T03:16:48.504Z,29.15
2022-08-26T03:21:52.506Z,32.72
2022-08-26T03:26:54.789Z,28.70
2022-08-26T03:31:57.252Z,32.65
2022-08-26T03:37:00.133Z,31.88
2022-08-26T03:42:02.266Z,31.13
2022-08-26T03:47:07.169Z,32.67
2022-08-26T03:52:09.399Z,33.20
2022-08-26T03:57:12.053Z,34.92
2022-08-26T04:02:14.219Z,35.50
2022-08-26T04:07:18.307Z,37.78
2022-08-26T04:12:21.078Z,40.42
2022-08-26T04:17:25.791Z,40.70
2022-08-26T04:22:28.352Z,38.05
2022-08-26T04:27:31.569Z,37.45
2022-08-26T04:32:33.706Z,41.45
2022-08-26T04:37:36.112Z,43.85
2022-08-26T04:42:38.316Z,42.92
2022-08-26T04:47:40.543Z,46.65
2022-08-26T04:52:43.215Z,43.03
2022-08-26T04:57:45.377Z,41.15
2022-08-26T05:02:48.303Z,40.08
2022-08-26T05:07:53.757Z,38.00
2022-08-26T05:12:55.843Z,37.90
2022-08-26T05:17:59.323Z,37.70
2022-08-26T05:23:03.353Z,36.00
2022-08-26T05:28:05.500Z,36.05
2022-08-26T05:33:09.866Z,34.15
2022-08-26T05:38:17.054Z,35.00
2022-08-26T05:43:20.032Z,34.25
2022-08-26T05:48:22.670Z,32.58
2022-08-26T05:53:26.609Z,32.50
2022-08-26T05:58:28.746Z,29.75
2022-08-26T06:03:33.421Z,29.67
2022-08-26T06:08:37.382Z,29.13
2022-08-26T06:13:40.053Z,26.52
2022-08-26T06:18:45.002Z,25.05
2022-08-26T06:24:07.678Z,26.02
2022-08-26T06:29:10.733Z,23.98
2022-08-26T06:34:18.778Z,24.30
2022-08-26T06:39:21.043Z,22.88
2022-08-26T06:44:23.590Z,21.13
2022-08-26T06:49:27.436Z,20.75
2022-08-26T06:54:31.842Z,18.88
2022-08-26T06:59:34.274Z,14.05
2022-08-26T07:04:36.612Z,16.40
2022-08-26T07:09:39.046Z,11.38
2022-08-26T07:14:47.262Z,10.80
2022-08-26T07:19:50.302Z,10.18
2022-08-26T07:24:52.459Z,9.85
2022-08-26T07:29:57.548Z,9.40
2022-08-26T07:35:00.579Z,8.32
2022-08-26T07:40:04.382Z,7.60
2022-08-26T07:45:07.274Z,6.10
2022-08-26T07:50:09.907Z,5.00
2022-08-26T07:55:12.169Z,4.22
2022-08-26T08:00:16.381Z,4.30
2022-08-26T08:05:22.366Z,5.35
2022-08-26T08:10:30.358Z,4.95
2022-08-26T08:15:35.258Z,4.90
2022-08-26T08:20:37.985Z,4.20
2022-08-26T08:25:40.105Z,4.43
2022-08-26T08:30:42.991Z,4.45
2022-08-26T08:35:46.240Z,3.97
2022-08-26T08:40:48.952Z,4.75
2022-08-26T08:45:58.081Z,3.83
2022-08-26T08:51:16.988Z,4.30
2022-08-26T08:56:29.133Z,4.18
2022-08-26T09:01:53.903Z,3.25
2022-08-26T09:06:59.675Z,4.03
2022-08-26T09:12:02.629Z,4.63
2022-08-26T09:17:22.925Z,4.40
2022-08-26T09:22:36.117Z,4.15
2022-08-26T09:27:38.198Z,4.45
2022-08-26T09:32:40.563Z,4.35
2022-08-26T09:43:22.295Z,4.15
2022-08-26T09:48:36.259Z,7.90
2022-08-26T09:53:51.913Z,4.03
2022-08-26T09:58:54.783Z,4.10
2022-08-26T10:04:19.998Z,4.00
2022-08-26T10:09:23.652Z,7.50
2022-08-26T10:14:34.812Z,4.00
2022-08-26T10:19:56.856Z,5.03
2022-08-26T10:25:03.867Z,5.20
2022-08-26T10:30:30.983Z,4.32
2022-08-26T10:35:37.232Z,4.95
2022-08-26T10:40:59.111Z,4.07
2022-08-26T10:46:12.540Z,3.83
2022-08-26T10:51:25.323Z,4.35
2022-08-26T10:56:49.928Z,4.85
2022-08-26T11:02:07.575Z,4.57
2022-08-26T11:07:32.172Z,4.75
2022-08-26T11:12:37.354Z,5.40
2022-08-26T11:17:48.691Z,4.90
2022-08-26T11:22:54.016Z,4.63
2022-08-26T11:27:59.844Z,4.78
2022-08-26T11:33:02.719Z,4.38
2022-08-26T11:38:25.572Z,4.22
2022-08-26T11:43:30.239Z,4.22
2022-08-26T11:48:40.440Z,4.53
2022-08-26T11:53:47.182Z,4.25
2022-08-26T11:59:00.051Z,4.50
2022-08-26T12:04:04.595Z,5.03
2022-08-26T12:09:13.672Z,4.97
2022-08-26T12:14:27.827Z,5.00
2022-08-26T12:19:33.911Z,4.95
2022-08-26T12:24:36.360Z,4.70
2022-08-26T12:29:38.447Z,4.30
2022-08-26T12:34:43.630Z,4.50
2022-08-26T12:39:47.033Z,3.55
2022-08-26T12:45:00.238Z,4.45
2022-08-26T12:50:24.003Z,3.90
2022-08-26T12:55:51.714Z,4.45
2022-08-26T13:01:18.798Z,4.22
2022-08-26T13:06:21.285Z,4.40
2022-08-26T13:11:34.376Z,4.68
2022-08-26T13:16:37.550Z,5.55
2022-08-26T13:21:54.582Z,9.60
2022-08-26T13:26:56.705Z,4.53
2022-08-26T13:31:59.762Z,4.65
2022-08-26T13:37:02.053Z,4.45
2022-08-26T13:42:04.399Z,4.50
2022-08-26T13:47:07.102Z,4.38
2022-08-26T13:52:09.834Z,4.93
2022-08-26T13:57:11.894Z,5.10
2022-08-26T14:02:14.779Z,4.85
2022-08-26T14:07:16.915Z,4.72
2022-08-26T14:12:19.016Z,5.20
2022-08-26T14:17:23.141Z,4.63
2022-08-26T14:22:25.248Z,4.55
2022-08-26T14:27:27.387Z,4.95
2022-08-26T14:32:30.052Z,5.32
2022-08-26T14:37:32.258Z,4.63
2022-08-26T14:42:34.843Z,5.35
2022-08-26T14:47:36.902Z,6.10
2022-08-26T14:52:57.686Z,5.80
2022-08-26T15:03:01.899Z,6.15
2022-08-26T15:08:10.345Z,5.57
2022-08-26T15:13:12.841Z,5.43
2022-08-26T15:18:14.956Z,6.07
2022-08-26T15:23:17.108Z,6.43
2022-08-26T15:28:19.780Z,7.22
2022-08-26T15:33:24.503Z,7.22
2022-08-26T15:38:30.221Z,6.45
2022-08-26T15:43:32.497Z,6.88
2022-08-26T15:48:34.617Z,6.50
2022-08-26T15:53:36.683Z,6.53
2022-08-26T15:58:38.743Z,6.60
2022-08-26T16:03:43.059Z,6.65
2022-08-26T16:08:45.607Z,6.45
2022-08-26T16:13:47.947Z,6.13
2022-08-26T16:18:50.184Z,6.78
2022-08-26T16:23:52.468Z,7.32
2022-08-26T16:28:55.326Z,6.80
2022-08-26T16:33:57.884Z,7.25
2022-08-26T16:39:00.196Z,7.03
2022-08-26T16:44:02.748Z,7.05
2022-08-26T16:49:04.847Z,6.97
2022-08-26T16:54:08.968Z,7.88
2022-08-26T16:59:11.771Z,7.75
2022-08-26T17:04:13.908Z,8.00
2022-08-26T17:09:16.807Z,8.93
2022-08-26T17:14:20.015Z,9.32
2022-08-26T17:19:32.832Z,9.02
2022-08-26T17:24:43.277Z,8.45
2022-08-26T17:29:45.738Z,8.00
2022-08-26T17:34:47.889Z,8.65
2022-08-26T17:39:50.156Z,9.10
2022-08-26T17:44:52.447Z,8.90
2022-08-26T17:49:54.800Z,9.18
2022-08-26T17:54:57.970Z,10.82
2022-08-26T18:00:00.482Z,9.50
2022-08-26T18:05:03.571Z,10.02
2022-08-26T18:10:13.157Z,10.00
2022-08-26T18:15:17.005Z,8.52
2022-08-26T18:20:19.834Z,9.07
2022-08-26T18:25:22.132Z,8.57
2022-08-26T18:30:25.393Z,8.95
2022-08-26T18:35:30.003Z,9.20
2022-08-26T18:40:32.191Z,9.98
2022-08-26T18:45:35.970Z,10.30
2022-08-26T18:50:40.306Z,10.32
2022-08-26T18:55:42.742Z,10.07
2022-08-26T19:00:45.066Z,10.30
2022-08-26T19:05:47.219Z,10.48
2022-08-26T19:10:49.714Z,10.70
2022-08-26T19:15:51.871Z,10.90
2022-08-26T19:20:54.050Z,10.63
2022-08-26T19:25:58.585Z,9.85
2022-08-26T19:31:01.064Z,13.85
2022-08-26T19:36:06.331Z,9.80
2022-08-26T19:41:37.948Z,9.95
2022-08-26T19:46:40.477Z,10.32
2022-08-26T19:51:42.686Z,10.50
2022-08-26T19:56:47.995Z,11.10
2022-08-26T20:02:00.683Z,11.82
2022-08-26T20:07:05.663Z,13.48
2022-08-26T20:12:08.321Z,12.60
2022-08-26T20:17:11.157Z,11.70
2022-08-26T20:22:15.257Z,12.60
2022-08-26T20:27:17.428Z,11.07
2022-08-26T20:32:19.583Z,10.70
2022-08-26T20:37:22.035Z,11.13
2022-08-26T20:42:24.295Z,11.30
2022-08-26T20:47:26.549Z,15.15
2022-08-26T20:52:31.276Z,12.40
2022-08-26T20:57:34.003Z,13.27
2022-08-26T21:02:37.022Z,13.05
2022-08-26T21:07:39.490Z,14.82
2022-08-26T21:12:41.608Z,15.57
2022-08-26T21:17:44.210Z,15.23
2022-08-26T21:22:46.687Z,15.38
2022-08-26T21:27:48.860Z,14.60
2022-08-26T21:32:51.032Z,14.80
2022-08-26T21:37:53.111Z,13.77
2022-08-26T21:42:55.283Z,15.52
2022-08-26T21:47:57.568Z,11.55
2022-08-26T21:53:00.477Z,13.93
2022-08-26T21:58:02.691Z,13.13
2022-08-26T22:03:04.852Z,18.30
2022-08-26T22:08:06.959Z,14.13
2022-08-26T22:13:09.988Z,13.63
2022-08-26T22:18:12.123Z,13.15
2022-08-26T22:23:14.230Z,16.20
2022-08-26T22:28:17.530Z,14.55
2022-08-26T22:33:19.719Z,14.20
2022-08-26T22:38:24.001Z,13.27
2022-08-26T22:43:28.705Z,13.38
2022-08-26T22:48:31.265Z,14.15
2022-08-26T22:53:35.957Z,13.73
2022-08-26T22:58:43.696Z,15.15
2022-08-26T23:03:46.105Z,14.95
2022-08-26T23:08:48.297Z,14.55
2022-08-26T23:13:50.390Z,14.80
2022-08-26T23:18:53.715Z,15.20
2022-08-26T23:23:56.423Z,14.35
2022-08-26T23:28:58.586Z,13.93
2022-08-26T23:34:19.198Z,13.85
2022-08-26T23:39:21.442Z,14.57
2022-08-26T23:44:25.981Z,14.32
2022-08-26T23:49:28.725Z,14.45
2022-08-26T23:54:32.978Z,14.15
2022-08-26T23:59:37.011Z,14.75
